sensor_id;sensor_type;location;lat;lon;timestamp;P1;durP1;ratioP1;P2;durP2;ratioP2
43933;SDS011;59081;42.706;23.306;2023-06-22T00:01:27;17.25;;;12.52;;
43933;SDS011;59081;42.706;23.306;2023-06-22T00:03:53;16.35;;;12.60;;
43933;SDS011;59081;42.706;23.306;2023-06-22T00:06:18;14.98;;;12.07;;
43933;SDS011;59081;42.706;23.306;2023-06-22T00:08:44;16.40;;;13.65;;
43933;SDS011;59081;42.706;23.306;2023-06-22T00:11:10;20.88;;;12.20;;
43933;SDS011;59081;42.706;23.306;2023-06-22T00:13:35;16.73;;;12.02;;
43933;SDS011;59081;42.706;23.306;2023-06-22T00:16:01;19.63;;;13.15;;
43933;SDS011;59081;42.706;23.306;2023-06-22T00:18:27;16.98;;;12.60;;
43933;SDS011;59081;42.706;23.306;2023-06-22T00:20:53;18.13;;;12.63;;
43933;SDS011;59081;42.706;23.306;2023-06-22T00:23:22;19.38;;;12.75;;
43933;SDS011;59081;42.706;23.306;2023-06-22T00:25:49;15.65;;;12.77;;
43933;SDS011;59081;42.706;23.306;2023-06-22T00:28:14;19.83;;;12.40;;
43933;SDS011;59081;42.706;23.306;2023-06-22T00:30:40;16.23;;;11.77;;
43933;SDS011;59081;42.706;23.306;2023-06-22T00:33:05;18.20;;;12.63;;
43933;SDS011;59081;42.706;23.306;2023-06-22T00:35:32;17.30;;;12.95;;
43933;SDS011;59081;42.706;23.306;2023-06-22T00:37:59;29.80;;;12.88;;
43933;SDS011;59081;42.706;23.306;2023-06-22T00:40:32;21.33;;;12.60;;
43933;SDS011;59081;42.706;23.306;2023-06-22T00:42:58;20.77;;;13.00;;
43933;SDS011;59081;42.706;23.306;2023-06-22T00:45:24;16.83;;;12.10;;
43933;SDS011;59081;42.706;23.306;2023-06-22T00:47:55;18.45;;;12.23;;
43933;SDS011;59081;42.706;23.306;2023-06-22T00:50:22;16.20;;;12.00;;
43933;SDS011;59081;42.706;23.306;2023-06-22T00:52:53;17.23;;;11.85;;
43933;SDS011;59081;42.706;23.306;2023-06-22T00:55:24;14.80;;;11.27;;
43933;SDS011;59081;42.706;23.306;2023-06-22T00:57:51;20.00;;;11.05;;
43933;SDS011;59081;42.706;23.306;2023-06-22T01:00:20;14.88;;;10.15;;
43933;SDS011;59081;42.706;23.306;2023-06-22T01:02:49;14.30;;;10.20;;
43933;SDS011;59081;42.706;23.306;2023-06-22T01:05:17;16.42;;;10.43;;
43933;SDS011;59081;42.706;23.306;2023-06-22T01:07:50;15.90;;;10.35;;
43933;SDS011;59081;42.706;23.306;2023-06-22T01:12:52;12.15;;;10.13;;
43933;SDS011;59081;42.706;23.306;2023-06-22T01:15:26;13.35;;;10.10;;
43933;SDS011;59081;42.706;23.306;2023-06-22T01:17:52;10.23;;;9.13;;
43933;SDS011;59081;42.706;23.306;2023-06-22T01:20:18;13.93;;;9.50;;
43933;SDS011;59081;42.706;23.306;2023-06-22T01:25:26;13.32;;;9.40;;
43933;SDS011;59081;42.706;23.306;2023-06-22T01:30:55;13.70;;;9.50;;
43933;SDS011;59081;42.706;23.306;2023-06-22T01:33:25;12.77;;;8.60;;
43933;SDS011;59081;42.706;23.306;2023-06-22T01:35:52;11.60;;;8.20;;
43933;SDS011;59081;42.706;23.306;2023-06-22T01:38:17;12.43;;;9.48;;
43933;SDS011;59081;42.706;23.306;2023-06-22T01:40:43;14.52;;;8.82;;
43933;SDS011;59081;42.706;23.306;2023-06-22T01:43:09;11.43;;;8.65;;
43933;SDS011;59081;42.706;23.306;2023-06-22T01:45:34;15.45;;;9.65;;
43933;SDS011;59081;42.706;23.306;2023-06-22T01:48:00;13.60;;;9.18;;
43933;SDS011;59081;42.706;23.306;2023-06-22T01:50:26;13.10;;;9.82;;
43933;SDS011;59081;42.706;23.306;2023-06-22T01:52:51;15.63;;;9.48;;
43933;SDS011;59081;42.706;23.306;2023-06-22T01:55:16;13.50;;;10.02;;
43933;SDS011;59081;42.706;23.306;2023-06-22T01:57:42;14.70;;;11.02;;
43933;SDS011;59081;42.706;23.306;2023-06-22T02:00:10;16.58;;;10.75;;
43933;SDS011;59081;42.706;23.306;2023-06-22T02:05:33;15.02;;;10.93;;
43933;SDS011;59081;42.706;23.306;2023-06-22T02:10:50;12.65;;;8.88;;
43933;SDS011;59081;42.706;23.306;2023-06-22T02:13:17;15.05;;;9.30;;
43933;SDS011;59081;42.706;23.306;2023-06-22T02:15:44;10.63;;;9.00;;
43933;SDS011;59081;42.706;23.306;2023-06-22T02:18:10;9.95;;;8.88;;
43933;SDS011;59081;42.706;23.306;2023-06-22T02:20:37;14.05;;;8.68;;
43933;SDS011;59081;42.706;23.306;2023-06-22T02:23:03;10.75;;;8.65;;
43933;SDS011;59081;42.706;23.306;2023-06-22T02:25:30;14.05;;;9.60;;
43933;SDS011;59081;42.706;23.306;2023-06-22T02:27:57;11.65;;;9.43;;
43933;SDS011;59081;42.706;23.306;2023-06-22T02:30:22;12.35;;;8.98;;
43933;SDS011;59081;42.706;23.306;2023-06-22T02:32:48;18.00;;;9.88;;
43933;SDS011;59081;42.706;23.306;2023-06-22T02:35:13;13.63;;;9.60;;
43933;SDS011;59081;42.706;23.306;2023-06-22T02:37:38;11.70;;;9.65;;
43933;SDS011;59081;42.706;23.306;2023-06-22T02:40:07;12.93;;;9.10;;
43933;SDS011;59081;42.706;23.306;2023-06-22T02:42:34;12.85;;;9.63;;
43933;SDS011;59081;42.706;23.306;2023-06-22T02:45:00;12.98;;;10.73;;
43933;SDS011;59081;42.706;23.306;2023-06-22T02:47:26;17.08;;;9.80;;
43933;SDS011;59081;42.706;23.306;2023-06-22T02:49:51;12.68;;;9.80;;
43933;SDS011;59081;42.706;23.306;2023-06-22T02:52:17;14.23;;;10.82;;
43933;SDS011;59081;42.706;23.306;2023-06-22T02:54:42;13.18;;;10.30;;
43933;SDS011;59081;42.706;23.306;2023-06-22T02:57:10;16.85;;;11.38;;
43933;SDS011;59081;42.706;23.306;2023-06-22T02:59:38;12.07;;;9.50;;
43933;SDS011;59081;42.706;23.306;2023-06-22T03:02:06;15.13;;;10.43;;
43933;SDS011;59081;42.706;23.306;2023-06-22T03:04:31;12.90;;;9.82;;
43933;SDS011;59081;42.706;23.306;2023-06-22T03:06:57;14.02;;;9.95;;
43933;SDS011;59081;42.706;23.306;2023-06-22T03:09:26;12.93;;;10.48;;
43933;SDS011;59081;42.706;23.306;2023-06-22T03:11:52;13.15;;;9.57;;
43933;SDS011;59081;42.706;23.306;2023-06-22T03:14:18;16.05;;;10.40;;
43933;SDS011;59081;42.706;23.306;2023-06-22T03:16:44;13.18;;;10.60;;
43933;SDS011;59081;42.706;23.306;2023-06-22T03:19:09;14.30;;;10.85;;
43933;SDS011;59081;42.706;23.306;2023-06-22T03:21:35;12.77;;;9.65;;
43933;SDS011;59081;42.706;23.306;2023-06-22T03:24:03;13.27;;;9.57;;
43933;SDS011;59081;42.706;23.306;2023-06-22T03:26:29;16.20;;;9.55;;
43933;SDS011;59081;42.706;23.306;2023-06-22T03:28:55;15.68;;;10.43;;
43933;SDS011;59081;42.706;23.306;2023-06-22T03:31:20;13.02;;;9.85;;
43933;SDS011;59081;42.706;23.306;2023-06-22T03:33:46;11.93;;;10.13;;
43933;SDS011;59081;42.706;23.306;2023-06-22T03:36:13;13.60;;;10.32;;
43933;SDS011;59081;42.706;23.306;2023-06-22T03:38:39;13.45;;;9.63;;
43933;SDS011;59081;42.706;23.306;2023-06-22T03:41:04;14.73;;;9.95;;
43933;SDS011;59081;42.706;23.306;2023-06-22T03:43:30;15.23;;;10.27;;
43933;SDS011;59081;42.706;23.306;2023-06-22T03:45:55;16.27;;;10.07;;
43933;SDS011;59081;42.706;23.306;2023-06-22T03:48:20;13.75;;;9.65;;
43933;SDS011;59081;42.706;23.306;2023-06-22T03:50:46;14.43;;;10.52;;
43933;SDS011;59081;42.706;23.306;2023-06-22T03:53:11;11.40;;;10.20;;
43933;SDS011;59081;42.706;23.306;2023-06-22T03:55:40;12.18;;;10.88;;
43933;SDS011;59081;42.706;23.306;2023-06-22T03:58:13;15.43;;;10.25;;
43933;SDS011;59081;42.706;23.306;2023-06-22T04:00:38;14.93;;;10.98;;
43933;SDS011;59081;42.706;23.306;2023-06-22T04:03:04;14.18;;;10.57;;
43933;SDS011;59081;42.706;23.306;2023-06-22T04:05:30;15.98;;;11.27;;
43933;SDS011;59081;42.706;23.306;2023-06-22T04:07:55;15.20;;;10.73;;
43933;SDS011;59081;42.706;23.306;2023-06-22T04:10:21;14.57;;;10.98;;
43933;SDS011;59081;42.706;23.306;2023-06-22T04:12:46;16.60;;;11.30;;
43933;SDS011;59081;42.706;23.306;2023-06-22T04:15:12;12.80;;;11.02;;
43933;SDS011;59081;42.706;23.306;2023-06-22T04:17:37;17.38;;;11.68;;
43933;SDS011;59081;42.706;23.306;2023-06-22T04:20:03;13.27;;;10.50;;
43933;SDS011;59081;42.706;23.306;2023-06-22T04:22:29;17.58;;;11.80;;
43933;SDS011;59081;42.706;23.306;2023-06-22T04:24:54;13.90;;;11.13;;
43933;SDS011;59081;42.706;23.306;2023-06-22T04:27:20;14.05;;;10.68;;
43933;SDS011;59081;42.706;23.306;2023-06-22T04:29:48;17.38;;;10.38;;
43933;SDS011;59081;42.706;23.306;2023-06-22T04:32:14;13.43;;;10.95;;
43933;SDS011;59081;42.706;23.306;2023-06-22T04:34:40;17.38;;;11.30;;
43933;SDS011;59081;42.706;23.306;2023-06-22T04:37:06;15.95;;;11.15;;
43933;SDS011;59081;42.706;23.306;2023-06-22T04:39:31;13.85;;;11.32;;
43933;SDS011;59081;42.706;23.306;2023-06-22T04:41:57;13.82;;;10.73;;
43933;SDS011;59081;42.706;23.306;2023-06-22T04:44:25;18.00;;;11.43;;
43933;SDS011;59081;42.706;23.306;2023-06-22T04:46:52;17.65;;;10.90;;
43933;SDS011;59081;42.706;23.306;2023-06-22T04:49:20;14.73;;;11.25;;
43933;SDS011;59081;42.706;23.306;2023-06-22T04:51:47;13.07;;;10.05;;
43933;SDS011;59081;42.706;23.306;2023-06-22T04:54:12;17.15;;;11.30;;
43933;SDS011;59081;42.706;23.306;2023-06-22T04:56:38;16.55;;;12.95;;
43933;SDS011;59081;42.706;23.306;2023-06-22T04:59:06;16.73;;;12.48;;
43933;SDS011;59081;42.706;23.306;2023-06-22T05:01:32;17.65;;;13.27;;
43933;SDS011;59081;42.706;23.306;2023-06-22T05:03:57;20.35;;;12.30;;
43933;SDS011;59081;42.706;23.306;2023-06-22T05:06:26;18.45;;;12.88;;
43933;SDS011;59081;42.706;23.306;2023-06-22T05:08:55;14.70;;;12.50;;
43933;SDS011;59081;42.706;23.306;2023-06-22T05:11:27;16.52;;;12.68;;
43933;SDS011;59081;42.706;23.306;2023-06-22T05:13:53;17.02;;;12.90;;
43933;SDS011;59081;42.706;23.306;2023-06-22T05:16:18;22.40;;;13.55;;
43933;SDS011;59081;42.706;23.306;2023-06-22T05:18:52;17.05;;;12.60;;
43933;SDS011;59081;42.706;23.306;2023-06-22T05:21:21;19.80;;;13.05;;
43933;SDS011;59081;42.706;23.306;2023-06-22T05:23:48;22.35;;;13.30;;
43933;SDS011;59081;42.706;23.306;2023-06-22T05:26:13;17.20;;;13.60;;
43933;SDS011;59081;42.706;23.306;2023-06-22T05:28:39;19.67;;;13.73;;
43933;SDS011;59081;42.706;23.306;2023-06-22T05:31:04;19.33;;;11.60;;
43933;SDS011;59081;42.706;23.306;2023-06-22T05:33:29;18.73;;;12.77;;
43933;SDS011;59081;42.706;23.306;2023-06-22T05:35:55;27.17;;;13.35;;
43933;SDS011;59081;42.706;23.306;2023-06-22T05:38:20;17.83;;;11.43;;
43933;SDS011;59081;42.706;23.306;2023-06-22T05:40:49;15.60;;;11.40;;
43933;SDS011;59081;42.706;23.306;2023-06-22T05:43:15;14.90;;;12.02;;
43933;SDS011;59081;42.706;23.306;2023-06-22T05:45:40;15.57;;;12.57;;
43933;SDS011;59081;42.706;23.306;2023-06-22T05:48:06;16.15;;;12.23;;
43933;SDS011;59081;42.706;23.306;2023-06-22T05:50:31;16.63;;;12.23;;
43933;SDS011;59081;42.706;23.306;2023-06-22T05:52:57;20.80;;;13.20;;
43933;SDS011;59081;42.706;23.306;2023-06-22T05:55:22;19.10;;;12.40;;
43933;SDS011;59081;42.706;23.306;2023-06-22T05:57:47;19.90;;;11.70;;
43933;SDS011;59081;42.706;23.306;2023-06-22T06:00:13;19.25;;;10.63;;
43933;SDS011;59081;42.706;23.306;2023-06-22T06:02:40;11.77;;;10.15;;
43933;SDS011;59081;42.706;23.306;2023-06-22T06:05:12;17.58;;;10.02;;
43933;SDS011;59081;42.706;23.306;2023-06-22T06:07:40;11.07;;;9.80;;
43933;SDS011;59081;42.706;23.306;2023-06-22T06:10:07;16.33;;;10.48;;
43933;SDS011;59081;42.706;23.306;2023-06-22T06:12:33;14.05;;;9.90;;
43933;SDS011;59081;42.706;23.306;2023-06-22T06:14:58;20.60;;;11.05;;
43933;SDS011;59081;42.706;23.306;2023-06-22T06:17:24;19.33;;;10.82;;
43933;SDS011;59081;42.706;23.306;2023-06-22T06:19:49;17.20;;;11.32;;
43933;SDS011;59081;42.706;23.306;2023-06-22T06:22:15;18.33;;;11.25;;
43933;SDS011;59081;42.706;23.306;2023-06-22T06:24:40;16.90;;;12.00;;
43933;SDS011;59081;42.706;23.306;2023-06-22T06:27:06;19.73;;;11.88;;
43933;SDS011;59081;42.706;23.306;2023-06-22T06:29:31;26.02;;;12.02;;
43933;SDS011;59081;42.706;23.306;2023-06-22T06:31:57;17.55;;;12.32;;
43933;SDS011;59081;42.706;23.306;2023-06-22T06:34:23;14.48;;;11.30;;
43933;SDS011;59081;42.706;23.306;2023-06-22T06:36:48;17.33;;;11.70;;
43933;SDS011;59081;42.706;23.306;2023-06-22T06:39:14;15.70;;;11.88;;
43933;SDS011;59081;42.706;23.306;2023-06-22T06:41:41;17.25;;;12.30;;
43933;SDS011;59081;42.706;23.306;2023-06-22T06:44:06;16.88;;;12.05;;
43933;SDS011;59081;42.706;23.306;2023-06-22T06:46:32;18.20;;;11.27;;
43933;SDS011;59081;42.706;23.306;2023-06-22T06:48:57;18.23;;;12.20;;
43933;SDS011;59081;42.706;23.306;2023-06-22T06:51:22;21.80;;;12.73;;
43933;SDS011;59081;42.706;23.306;2023-06-22T06:53:48;15.82;;;11.88;;
43933;SDS011;59081;42.706;23.306;2023-06-22T06:56:13;16.45;;;11.35;;
43933;SDS011;59081;42.706;23.306;2023-06-22T06:58:42;17.85;;;11.80;;
43933;SDS011;59081;42.706;23.306;2023-06-22T07:01:08;18.80;;;11.38;;
43933;SDS011;59081;42.706;23.306;2023-06-22T07:03:33;16.77;;;11.75;;
43933;SDS011;59081;42.706;23.306;2023-06-22T07:05:59;20.83;;;12.10;;
43933;SDS011;59081;42.706;23.306;2023-06-22T07:08:25;21.45;;;11.45;;
43933;SDS011;59081;42.706;23.306;2023-06-22T07:10:51;22.92;;;12.90;;
43933;SDS011;59081;42.706;23.306;2023-06-22T07:13:17;17.58;;;11.55;;
43933;SDS011;59081;42.706;23.306;2023-06-22T07:15:42;18.58;;;11.70;;
43933;SDS011;59081;42.706;23.306;2023-06-22T07:18:08;13.57;;;10.85;;
43933;SDS011;59081;42.706;23.306;2023-06-22T07:20:33;23.08;;;11.90;;
43933;SDS011;59081;42.706;23.306;2023-06-22T07:22:59;16.27;;;11.07;;
43933;SDS011;59081;42.706;23.306;2023-06-22T07:25:25;18.67;;;11.30;;
43933;SDS011;59081;42.706;23.306;2023-06-22T07:27:58;14.32;;;11.23;;
43933;SDS011;59081;42.706;23.306;2023-06-22T07:30:28;12.65;;;10.40;;
43933;SDS011;59081;42.706;23.306;2023-06-22T07:32:54;15.00;;;10.98;;
43933;SDS011;59081;42.706;23.306;2023-06-22T07:35:20;13.10;;;10.60;;
43933;SDS011;59081;42.706;23.306;2023-06-22T07:37:46;20.42;;;10.10;;
43933;SDS011;59081;42.706;23.306;2023-06-22T07:40:11;22.55;;;10.60;;
43933;SDS011;59081;42.706;23.306;2023-06-22T07:42:37;17.33;;;11.07;;
43933;SDS011;59081;42.706;23.306;2023-06-22T07:45:03;17.25;;;10.95;;
43933;SDS011;59081;42.706;23.306;2023-06-22T07:47:29;12.52;;;10.13;;
43933;SDS011;59081;42.706;23.306;2023-06-22T07:49:55;14.77;;;10.10;;
43933;SDS011;59081;42.706;23.306;2023-06-22T07:52:24;14.40;;;11.00;;
43933;SDS011;59081;42.706;23.306;2023-06-22T07:54:50;14.55;;;9.55;;
43933;SDS011;59081;42.706;23.306;2023-06-22T07:57:16;17.73;;;10.60;;
43933;SDS011;59081;42.706;23.306;2023-06-22T07:59:41;17.83;;;10.88;;
43933;SDS011;59081;42.706;23.306;2023-06-22T08:02:07;12.27;;;9.35;;
43933;SDS011;59081;42.706;23.306;2023-06-22T08:04:33;19.30;;;10.38;;
43933;SDS011;59081;42.706;23.306;2023-06-22T08:06:59;17.67;;;10.10;;
43933;SDS011;59081;42.706;23.306;2023-06-22T08:09:27;17.10;;;10.52;;
43933;SDS011;59081;42.706;23.306;2023-06-22T08:11:53;13.85;;;10.18;;
43933;SDS011;59081;42.706;23.306;2023-06-22T08:14:20;13.57;;;10.43;;
43933;SDS011;59081;42.706;23.306;2023-06-22T08:16:46;18.55;;;11.20;;
43933;SDS011;59081;42.706;23.306;2023-06-22T08:19:12;25.30;;;11.00;;
43933;SDS011;59081;42.706;23.306;2023-06-22T08:21:37;14.63;;;10.07;;
43933;SDS011;59081;42.706;23.306;2023-06-22T08:24:03;15.98;;;10.13;;
43933;SDS011;59081;42.706;23.306;2023-06-22T08:26:29;17.85;;;10.43;;
43933;SDS011;59081;42.706;23.306;2023-06-22T08:28:54;12.18;;;9.05;;
43933;SDS011;59081;42.706;23.306;2023-06-22T08:31:19;10.23;;;8.75;;
43933;SDS011;59081;42.706;23.306;2023-06-22T08:33:45;16.92;;;8.55;;
43933;SDS011;59081;42.706;23.306;2023-06-22T08:36:11;11.63;;;8.82;;
43933;SDS011;59081;42.706;23.306;2023-06-22T08:38:38;11.77;;;8.02;;
43933;SDS011;59081;42.706;23.306;2023-06-22T08:41:04;10.82;;;8.70;;
43933;SDS011;59081;42.706;23.306;2023-06-22T08:43:29;8.90;;;7.97;;
43933;SDS011;59081;42.706;23.306;2023-06-22T08:45:55;9.95;;;7.75;;
43933;SDS011;59081;42.706;23.306;2023-06-22T08:48:20;9.00;;;7.90;;
43933;SDS011;59081;42.706;23.306;2023-06-22T08:50:46;9.63;;;8.63;;
43933;SDS011;59081;42.706;23.306;2023-06-22T08:53:11;9.80;;;7.43;;
43933;SDS011;59081;42.706;23.306;2023-06-22T08:55:37;15.20;;;8.40;;
43933;SDS011;59081;42.706;23.306;2023-06-22T08:58:03;14.80;;;9.27;;
43933;SDS011;59081;42.706;23.306;2023-06-22T09:00:28;11.05;;;8.65;;
43933;SDS011;59081;42.706;23.306;2023-06-22T09:02:57;8.80;;;7.85;;
43933;SDS011;59081;42.706;23.306;2023-06-22T09:05:24;10.55;;;8.50;;
43933;SDS011;59081;42.706;23.306;2023-06-22T09:07:51;11.25;;;8.32;;
43933;SDS011;59081;42.706;23.306;2023-06-22T09:10:17;11.43;;;8.63;;
43933;SDS011;59081;42.706;23.306;2023-06-22T09:12:42;11.82;;;7.80;;
43933;SDS011;59081;42.706;23.306;2023-06-22T09:15:08;8.68;;;7.75;;
43933;SDS011;59081;42.706;23.306;2023-06-22T09:17:34;9.00;;;7.90;;
43933;SDS011;59081;42.706;23.306;2023-06-22T09:20:00;12.55;;;8.23;;
43933;SDS011;59081;42.706;23.306;2023-06-22T09:22:27;8.95;;;8.05;;
43933;SDS011;59081;42.706;23.306;2023-06-22T09:24:54;8.25;;;6.90;;
43933;SDS011;59081;42.706;23.306;2023-06-22T09:27:21;8.70;;;7.40;;
43933;SDS011;59081;42.706;23.306;2023-06-22T09:29:47;10.43;;;7.68;;
43933;SDS011;59081;42.706;23.306;2023-06-22T09:32:13;9.40;;;8.20;;
43933;SDS011;59081;42.706;23.306;2023-06-22T09:34:38;10.43;;;7.70;;
43933;SDS011;59081;42.706;23.306;2023-06-22T09:37:04;9.38;;;7.72;;
43933;SDS011;59081;42.706;23.306;2023-06-22T09:39:29;9.27;;;7.97;;
43933;SDS011;59081;42.706;23.306;2023-06-22T09:41:55;10.68;;;7.10;;
43933;SDS011;59081;42.706;23.306;2023-06-22T09:44:22;8.48;;;7.18;;
43933;SDS011;59081;42.706;23.306;2023-06-22T09:46:48;10.52;;;7.72;;
43933;SDS011;59081;42.706;23.306;2023-06-22T09:49:13;10.13;;;7.75;;
43933;SDS011;59081;42.706;23.306;2023-06-22T09:51:39;7.57;;;6.90;;
43933;SDS011;59081;42.706;23.306;2023-06-22T09:54:04;10.13;;;7.25;;
43933;SDS011;59081;42.706;23.306;2023-06-22T09:56:30;10.70;;;7.93;;
43933;SDS011;59081;42.706;23.306;2023-06-22T09:58:56;8.98;;;8.07;;
43933;SDS011;59081;42.706;23.306;2023-06-22T10:01:22;9.93;;;8.05;;
43933;SDS011;59081;42.706;23.306;2023-06-22T10:03:47;9.30;;;8.15;;
43933;SDS011;59081;42.706;23.306;2023-06-22T10:06:13;11.65;;;9.13;;
43933;SDS011;59081;42.706;23.306;2023-06-22T10:08:38;9.45;;;8.45;;
43933;SDS011;59081;42.706;23.306;2023-06-22T10:11:05;12.02;;;8.38;;
43933;SDS011;59081;42.706;23.306;2023-06-22T10:13:31;8.95;;;8.05;;
43933;SDS011;59081;42.706;23.306;2023-06-22T10:15:56;13.73;;;8.55;;
43933;SDS011;59081;42.706;23.306;2023-06-22T10:18:22;8.57;;;7.60;;
43933;SDS011;59081;42.706;23.306;2023-06-22T10:20:48;12.43;;;7.82;;
43933;SDS011;59081;42.706;23.306;2023-06-22T10:23:19;10.43;;;7.78;;
43933;SDS011;59081;42.706;23.306;2023-06-22T10:25:45;9.05;;;8.15;;
43933;SDS011;59081;42.706;23.306;2023-06-22T10:28:10;8.95;;;8.05;;
43933;SDS011;59081;42.706;23.306;2023-06-22T10:30:37;11.23;;;8.10;;
43933;SDS011;59081;42.706;23.306;2023-06-22T10:33:06;10.75;;;7.45;;
43933;SDS011;59081;42.706;23.306;2023-06-22T10:35:32;8.35;;;7.50;;
43933;SDS011;59081;42.706;23.306;2023-06-22T10:37:57;11.38;;;8.07;;
43933;SDS011;59081;42.706;23.306;2023-06-22T10:40:23;9.38;;;8.05;;
43933;SDS011;59081;42.706;23.306;2023-06-22T10:42:48;9.52;;;8.13;;
43933;SDS011;59081;42.706;23.306;2023-06-22T10:45:15;8.63;;;7.82;;
43933;SDS011;59081;42.706;23.306;2023-06-22T10:47:41;16.08;;;8.48;;
43933;SDS011;59081;42.706;23.306;2023-06-22T10:50:09;16.70;;;8.52;;
43933;SDS011;59081;42.706;23.306;2023-06-22T10:52:35;8.23;;;7.38;;
43933;SDS011;59081;42.706;23.306;2023-06-22T10:55:00;11.13;;;7.47;;
43933;SDS011;59081;42.706;23.306;2023-06-22T10:57:26;9.85;;;7.88;;
43933;SDS011;59081;42.706;23.306;2023-06-22T10:59:51;12.85;;;8.95;;
43933;SDS011;59081;42.706;23.306;2023-06-22T11:02:17;10.88;;;8.13;;
43933;SDS011;59081;42.706;23.306;2023-06-22T11:04:42;8.68;;;7.05;;
43933;SDS011;59081;42.706;23.306;2023-06-22T11:07:08;8.23;;;7.22;;
43933;SDS011;59081;42.706;23.306;2023-06-22T11:09:34;9.77;;;7.43;;
43933;SDS011;59081;42.706;23.306;2023-06-22T11:11:59;10.23;;;8.10;;
43933;SDS011;59081;42.706;23.306;2023-06-22T11:14:25;8.85;;;7.30;;
43933;SDS011;59081;42.706;23.306;2023-06-22T11:16:51;10.27;;;7.85;;
43933;SDS011;59081;42.706;23.306;2023-06-22T11:19:16;10.07;;;6.57;;
43933;SDS011;59081;42.706;23.306;2023-06-22T11:21:42;8.90;;;7.45;;
43933;SDS011;59081;42.706;23.306;2023-06-22T11:24:08;10.75;;;7.00;;
43933;SDS011;59081;42.706;23.306;2023-06-22T11:26:33;10.13;;;6.95;;
43933;SDS011;59081;42.706;23.306;2023-06-22T11:29:00;8.98;;;7.32;;
43933;SDS011;59081;42.706;23.306;2023-06-22T11:31:25;11.95;;;7.18;;
43933;SDS011;59081;42.706;23.306;2023-06-22T11:33:51;9.60;;;7.22;;
43933;SDS011;59081;42.706;23.306;2023-06-22T11:36:16;10.77;;;7.35;;
43933;SDS011;59081;42.706;23.306;2023-06-22T11:38:42;10.88;;;6.88;;
43933;SDS011;59081;42.706;23.306;2023-06-22T11:41:08;8.90;;;8.00;;
43933;SDS011;59081;42.706;23.306;2023-06-22T11:43:34;11.02;;;7.38;;
43933;SDS011;59081;42.706;23.306;2023-06-22T11:46:02;9.25;;;7.47;;
43933;SDS011;59081;42.706;23.306;2023-06-22T11:48:28;9.20;;;7.30;;
43933;SDS011;59081;42.706;23.306;2023-06-22T11:50:54;11.05;;;7.50;;
43933;SDS011;59081;42.706;23.306;2023-06-22T11:53:20;7.10;;;6.40;;
43933;SDS011;59081;42.706;23.306;2023-06-22T11:55:46;10.27;;;7.25;;
43933;SDS011;59081;42.706;23.306;2023-06-22T11:58:12;8.23;;;7.05;;
43933;SDS011;59081;42.706;23.306;2023-06-22T12:00:38;12.43;;;7.72;;
43933;SDS011;59081;42.706;23.306;2023-06-22T12:03:04;7.90;;;7.10;;
43933;SDS011;59081;42.706;23.306;2023-06-22T12:05:29;8.75;;;7.38;;
43933;SDS011;59081;42.706;23.306;2023-06-22T12:07:55;11.88;;;7.63;;
43933;SDS011;59081;42.706;23.306;2023-06-22T12:10:22;11.80;;;8.95;;
43933;SDS011;59081;42.706;23.306;2023-06-22T12:12:48;9.65;;;7.93;;
43933;SDS011;59081;42.706;23.306;2023-06-22T12:15:13;12.35;;;7.97;;
43933;SDS011;59081;42.706;23.306;2023-06-22T12:17:57;12.25;;;8.55;;
43933;SDS011;59081;42.706;23.306;2023-06-22T12:20:23;10.80;;;8.60;;
43933;SDS011;59081;42.706;23.306;2023-06-22T12:22:48;11.75;;;8.57;;
43933;SDS011;59081;42.706;23.306;2023-06-22T12:25:16;15.40;;;9.20;;
43933;SDS011;59081;42.706;23.306;2023-06-22T12:27:42;21.30;;;10.15;;
43933;SDS011;59081;42.706;23.306;2023-06-22T12:30:08;17.00;;;10.35;;
43933;SDS011;59081;42.706;23.306;2023-06-22T12:32:33;12.43;;;8.85;;
43933;SDS011;59081;42.706;23.306;2023-06-22T12:34:59;12.45;;;9.50;;
43933;SDS011;59081;42.706;23.306;2023-06-22T12:37:24;12.45;;;8.38;;
43933;SDS011;59081;42.706;23.306;2023-06-22T12:39:50;12.85;;;7.65;;
43933;SDS011;59081;42.706;23.306;2023-06-22T12:42:17;11.18;;;7.60;;
43933;SDS011;59081;42.706;23.306;2023-06-22T12:44:42;11.20;;;6.90;;
43933;SDS011;59081;42.706;23.306;2023-06-22T12:47:08;11.38;;;6.85;;
43933;SDS011;59081;42.706;23.306;2023-06-22T12:49:34;10.82;;;7.53;;
43933;SDS011;59081;42.706;23.306;2023-06-22T12:52:01;13.70;;;7.18;;
43933;SDS011;59081;42.706;23.306;2023-06-22T12:54:26;11.77;;;6.25;;
43933;SDS011;59081;42.706;23.306;2023-06-22T12:56:53;11.68;;;6.05;;
43933;SDS011;59081;42.706;23.306;2023-06-22T12:59:18;7.43;;;4.55;;
43933;SDS011;59081;42.706;23.306;2023-06-22T13:01:44;15.07;;;6.65;;
43933;SDS011;59081;42.706;23.306;2023-06-22T13:04:10;10.57;;;4.93;;
43933;SDS011;59081;42.706;23.306;2023-06-22T13:06:43;10.88;;;6.22;;
43933;SDS011;59081;42.706;23.306;2023-06-22T13:09:12;23.73;;;7.40;;
43933;SDS011;59081;42.706;23.306;2023-06-22T13:11:40;14.73;;;6.63;;
43933;SDS011;59081;42.706;23.306;2023-06-22T13:14:05;15.18;;;6.40;;
43933;SDS011;59081;42.706;23.306;2023-06-22T13:16:31;9.90;;;6.25;;
43933;SDS011;59081;42.706;23.306;2023-06-22T13:18:56;13.73;;;6.63;;
43933;SDS011;59081;42.706;23.306;2023-06-22T13:21:21;10.65;;;6.75;;
43933;SDS011;59081;42.706;23.306;2023-06-22T13:23:47;13.55;;;7.53;;
43933;SDS011;59081;42.706;23.306;2023-06-22T13:26:12;9.75;;;6.20;;
43933;SDS011;59081;42.706;23.306;2023-06-22T13:28:38;17.45;;;8.05;;
43933;SDS011;59081;42.706;23.306;2023-06-22T13:31:03;12.95;;;7.28;;
43933;SDS011;59081;42.706;23.306;2023-06-22T13:33:29;9.50;;;6.72;;
43933;SDS011;59081;42.706;23.306;2023-06-22T13:35:54;9.85;;;8.10;;
43933;SDS011;59081;42.706;23.306;2023-06-22T13:38:20;12.77;;;8.55;;
43933;SDS011;59081;42.706;23.306;2023-06-22T13:40:45;12.23;;;8.57;;
43933;SDS011;59081;42.706;23.306;2023-06-22T13:43:12;11.18;;;7.65;;
43933;SDS011;59081;42.706;23.306;2023-06-22T13:45:38;10.95;;;8.05;;
43933;SDS011;59081;42.706;23.306;2023-06-22T13:48:03;11.07;;;8.70;;
43933;SDS011;59081;42.706;23.306;2023-06-22T13:50:29;15.02;;;8.40;;
43933;SDS011;59081;42.706;23.306;2023-06-22T13:52:55;16.38;;;8.98;;
43933;SDS011;59081;42.706;23.306;2023-06-22T13:55:20;15.45;;;8.50;;
43933;SDS011;59081;42.706;23.306;2023-06-22T13:57:47;18.50;;;9.30;;
43933;SDS011;59081;42.706;23.306;2023-06-22T14:00:12;14.23;;;8.60;;
43933;SDS011;59081;42.706;23.306;2023-06-22T14:02:38;21.95;;;8.23;;
43933;SDS011;59081;42.706;23.306;2023-06-22T14:05:05;12.70;;;8.15;;
43933;SDS011;59081;42.706;23.306;2023-06-22T14:07:31;12.35;;;7.40;;
43933;SDS011;59081;42.706;23.306;2023-06-22T14:09:57;14.45;;;8.23;;
43933;SDS011;59081;42.706;23.306;2023-06-22T14:12:23;10.45;;;7.18;;
43933;SDS011;59081;42.706;23.306;2023-06-22T14:14:48;11.70;;;7.72;;
43933;SDS011;59081;42.706;23.306;2023-06-22T14:17:14;9.95;;;7.63;;
43933;SDS011;59081;42.706;23.306;2023-06-22T14:19:39;14.10;;;7.75;;
43933;SDS011;59081;42.706;23.306;2023-06-22T14:22:05;10.50;;;7.55;;
43933;SDS011;59081;42.706;23.306;2023-06-22T14:24:30;14.45;;;8.10;;
43933;SDS011;59081;42.706;23.306;2023-06-22T14:26:56;12.15;;;7.88;;